Moose Jaw Air Vice Marshal C. M. McEwen Airport
CYMJ : now visible

Airfield :











YOU CAN JOIN US ON...

 
LOGIN :

Register | Disclaimer

   EN    FR    IT 

 









Legend :    VFR   Marginal VFR   IFR   Intensive IFR   Very Intensive IFR
Visi :
Ceiling :
>= 8 km
>= 3000ft
5 to 8 km
1000 to 3000 ft
1500m to 5 km
500 to 1000 ft
800 to 1500m
200 to 500 ft
< 800m
< 200 ft
Symbols :   Thunderstorms  Fog  Heavy snow  Heavy precipitations  Wind > 20 kt






- Airport Elevation : 1892 ft
- IATA code : YMJ


CYMJ - Moose Jaw Air Vice Marshal C. M. McEwen

CURRENT METAR :
  • 192228Z 03006KT 8SM OVC012 01/M01 A2984 RMK SC8 LAST OBS/NEXT 201000 UTC SLP131

EXPIRED METARs :
  • 192200Z 03004KT 8SM BKN012 OVC080 01/M00 A2984 RMK SF5AS3 VIS LWR ON APCH RWY 29 SLP131
  • 192131Z 03006KT 8SM SCT010 OVC080 02/M00 A2983 RMK SF3AS5 VIS E 2SM FU LWR LYR MOVG IN FM N SLP126
  • 192100Z 34005KT 15SM FEW010 OVC080 02/M00 A2981 RMK SF1AS8 SLP120

TAF AMD TAF CYMJ
Valid from the 19 at 21:00 until the 20 at 06:00 UTC


192154Z 1921/2006 36008KT P6SM BKN012 OVC080
TEMPO 1921/2002 SCT012 BKN080
FM200200 36010KT P6SM SCT010 BKN080
TEMPO 2002/2006 5SM -SN OVC010 RMK NXT FCST BY 200000Z



MET'MAP, your aeronautical weather chart ! - Copyright ORBIFLY December 2007 - Disclaimer

ORBIFLY MET'MAP TEAM :

Programming & Development : Alexandra Zaïnal
Concept & Development : Baudouin d'Aumeries
Co-Development & Prog : Marc-Olivier Méhu
Technical & hardware support : Manuel Goepfert

Contact : metmap@orbifly.com




SOURCES & CREDITS :

   NOAA       Earth
Advisory